createdAt,value
2022-10-08T00:01:18.169Z,7.30
2022-10-08T00:03:47.802Z,7.30
2022-10-08T00:06:23.169Z,7.30
2022-10-08T00:08:53.768Z,7.30
2022-10-08T00:11:29.534Z,7.30
2022-10-08T00:13:56.966Z,7.30
2022-10-08T00:16:30.472Z,7.30
2022-10-08T00:19:03.954Z,7.30
2022-10-08T00:21:39.015Z,7.30
2022-10-08T00:24:08.109Z,7.30
2022-10-08T00:26:42.550Z,7.20
2022-10-08T00:29:13.799Z,7.20
2022-10-08T00:31:45.474Z,7.20
2022-10-08T00:34:21.740Z,7.20
2022-10-08T00:36:52.144Z,7.10
2022-10-08T00:39:21.885Z,7.10
2022-10-08T00:41:52.577Z,7.10
2022-10-08T00:44:54.414Z,7.00
2022-10-08T00:47:33.272Z,7.00
2022-10-08T00:50:12.195Z,7.00
2022-10-08T00:53:01.398Z,7.00
2022-10-08T00:55:30.032Z,7.00
2022-10-08T00:58:01.367Z,7.00
2022-10-08T01:00:29.618Z,6.90
2022-10-08T01:02:56.935Z,6.90
2022-10-08T01:05:39.656Z,6.80
2022-10-08T01:08:34.771Z,6.80
2022-10-08T01:11:23.167Z,6.80
2022-10-08T01:13:55.952Z,6.80
2022-10-08T01:16:45.657Z,6.80
2022-10-08T01:19:36.906Z,6.80
2022-10-08T01:22:09.998Z,6.80
2022-10-08T01:25:32.783Z,6.70
2022-10-08T01:28:24.342Z,6.60
2022-10-08T01:31:22.353Z,6.60
2022-10-08T01:34:03.335Z,6.60
2022-10-08T01:36:37.030Z,6.60
2022-10-08T01:39:09.554Z,6.60
2022-10-08T01:41:36.679Z,6.60
2022-10-08T01:44:15.413Z,6.60
2022-10-08T01:46:46.415Z,6.60
2022-10-08T01:49:18.143Z,6.70
2022-10-08T01:51:53.912Z,6.70
2022-10-08T01:54:24.486Z,6.70
2022-10-08T01:56:54.740Z,6.70
2022-10-08T01:59:42.265Z,6.70
2022-10-08T02:02:21.452Z,6.70
2022-10-08T02:04:49.552Z,6.70
2022-10-08T02:07:25.695Z,6.60
2022-10-08T02:10:03.721Z,6.60
2022-10-08T02:12:31.344Z,6.60
2022-10-08T02:14:59.395Z,6.60
2022-10-08T02:17:38.427Z,6.60
2022-10-08T02:20:11.576Z,6.60
2022-10-08T02:22:45.794Z,6.50
2022-10-08T02:25:24.750Z,6.50
2022-10-08T02:28:09.942Z,6.40
2022-10-08T02:30:42.928Z,6.40
2022-10-08T02:33:26.802Z,6.30
2022-10-08T02:35:57.656Z,6.20
2022-10-08T02:38:52.010Z,6.20
2022-10-08T02:41:25.180Z,6.20
2022-10-08T02:43:54.342Z,6.10
2022-10-08T02:46:24.283Z,6.10
2022-10-08T02:49:01.646Z,6.10
2022-10-08T02:51:32.044Z,6.10
2022-10-08T02:54:00.731Z,6.10
2022-10-08T02:56:38.994Z,6.00
2022-10-08T02:59:06.829Z,6.00
2022-10-08T03:01:50.406Z,6.00
2022-10-08T03:04:41.696Z,6.00
2022-10-08T03:07:09.750Z,6.00
2022-10-08T03:09:39.943Z,5.90
2022-10-08T03:12:07.752Z,6.00
2022-10-08T03:14:43.897Z,5.90
2022-10-08T03:17:15.223Z,5.90
2022-10-08T03:19:45.321Z,5.90
2022-10-08T03:22:15.234Z,5.90
2022-10-08T03:24:43.609Z,5.90
2022-10-08T03:27:10.774Z,5.90
2022-10-08T03:29:37.718Z,5.90
2022-10-08T03:32:04.791Z,5.90
2022-10-08T03:34:31.709Z,5.90
2022-10-08T03:36:58.719Z,5.90
2022-10-08T03:39:25.675Z,5.90
2022-10-08T03:41:52.613Z,5.90
2022-10-08T03:44:19.517Z,5.90
2022-10-08T03:46:46.540Z,5.90
2022-10-08T03:49:13.531Z,5.90
2022-10-08T03:51:40.470Z,5.90
2022-10-08T03:54:07.397Z,5.90
2022-10-08T03:56:34.647Z,5.90
2022-10-08T03:59:01.967Z,5.90
2022-10-08T04:01:29.611Z,5.90
2022-10-08T04:03:56.629Z,5.80
2022-10-08T04:06:23.924Z,5.80
2022-10-08T04:08:50.931Z,5.80
2022-10-08T04:11:19.305Z,5.80
2022-10-08T04:13:46.469Z,5.70
2022-10-08T04:16:15.825Z,5.70
2022-10-08T04:18:43.605Z,5.70
2022-10-08T04:21:13.550Z,5.70
2022-10-08T04:23:41.864Z,5.70
2022-10-08T04:26:10.378Z,5.70
2022-10-08T04:28:39.521Z,5.70
2022-10-08T04:31:12.891Z,5.60
2022-10-08T04:33:40.026Z,5.60
2022-10-08T04:36:15.729Z,5.60
2022-10-08T04:38:43.853Z,5.50
2022-10-08T04:41:13.611Z,5.50
2022-10-08T04:43:41.893Z,5.50
2022-10-08T04:46:10.959Z,5.50
2022-10-08T04:48:39.109Z,5.50
2022-10-08T04:51:10.591Z,5.50
2022-10-08T04:53:38.459Z,5.40
2022-10-08T04:56:17.718Z,5.40
2022-10-08T04:58:45.259Z,5.50
2022-10-08T05:01:14.579Z,5.50
2022-10-08T05:03:44.455Z,5.50
2022-10-08T05:06:12.250Z,5.60
2022-10-08T05:08:40.573Z,5.50
2022-10-08T05:11:07.823Z,5.60
2022-10-08T05:13:35.136Z,5.70
2022-10-08T05:16:13.870Z,5.70
2022-10-08T05:18:42.238Z,5.80
2022-10-08T05:21:12.398Z,5.70
2022-10-08T05:23:40.131Z,5.80
2022-10-08T05:26:14.144Z,5.90
2022-10-08T05:28:41.288Z,6.00
2022-10-08T05:31:08.278Z,6.10
2022-10-08T05:33:36.512Z,6.20
2022-10-08T05:36:05.641Z,6.30
2022-10-08T05:38:35.108Z,6.40
2022-10-08T05:41:13.839Z,6.40
2022-10-08T05:43:43.788Z,6.60
2022-10-08T05:46:11.144Z,6.70
2022-10-08T05:48:38.901Z,6.90
2022-10-08T05:51:11.400Z,7.00
2022-10-08T05:53:40.826Z,7.10
2022-10-08T05:56:10.815Z,7.30
2022-10-08T05:58:39.673Z,7.50
2022-10-08T06:01:13.526Z,7.60
2022-10-08T06:03:40.771Z,7.90
2022-10-08T06:06:11.733Z,8.20
2022-10-08T06:08:38.760Z,8.50
2022-10-08T06:11:06.367Z,8.90
2022-10-08T06:13:33.769Z,9.30
2022-10-08T06:16:03.553Z,9.70
2022-10-08T06:18:33.264Z,10.30
2022-10-08T06:21:15.228Z,10.90
2022-10-08T06:23:52.107Z,11.50
2022-10-08T06:26:20.168Z,12.00
2022-10-08T06:28:47.125Z,12.50
2022-10-08T06:31:14.725Z,12.70
2022-10-08T06:33:41.853Z,12.80
2022-10-08T06:36:14.370Z,12.80
2022-10-08T06:38:41.632Z,12.90
2022-10-08T06:41:08.905Z,13.00
2022-10-08T06:43:36.295Z,13.00
2022-10-08T06:46:07.508Z,12.90
2022-10-08T06:48:35.026Z,12.80
2022-10-08T06:51:04.770Z,12.90
2022-10-08T06:53:32.017Z,13.10
2022-10-08T06:56:08.579Z,13.40
2022-10-08T06:58:35.651Z,13.50
2022-10-08T07:01:06.780Z,13.50
2022-10-08T07:03:34.800Z,13.50
2022-10-08T07:06:03.179Z,13.40
2022-10-08T07:08:30.754Z,13.40
2022-10-08T07:11:11.042Z,13.60
2022-10-08T07:13:39.261Z,13.70
2022-10-08T07:16:20.535Z,13.70
2022-10-08T07:18:50.284Z,13.50
2022-10-08T07:21:18.970Z,13.50
2022-10-08T07:23:46.072Z,13.50
2022-10-08T07:26:22.091Z,13.50
2022-10-08T07:29:01.716Z,13.50
2022-10-08T07:31:31.465Z,13.30
2022-10-08T07:34:00.078Z,13.20
2022-10-08T07:36:28.373Z,13.00
2022-10-08T07:38:56.680Z,12.80
2022-10-08T07:41:24.170Z,12.70
2022-10-08T07:44:05.314Z,12.70
2022-10-08T07:46:49.920Z,12.80
2022-10-08T07:49:18.909Z,12.80
2022-10-08T07:51:46.407Z,12.80
2022-10-08T07:54:18.568Z,12.70
2022-10-08T07:56:45.989Z,12.70
2022-10-08T07:59:15.913Z,12.70
2022-10-08T08:01:43.974Z,12.70
2022-10-08T08:04:11.687Z,12.70
2022-10-08T08:06:44.177Z,12.60
2022-10-08T08:09:14.436Z,12.50
2022-10-08T08:11:41.456Z,12.50
2022-10-08T08:14:08.372Z,12.60
2022-10-08T08:16:35.519Z,12.80
2022-10-08T08:19:07.176Z,13.10
2022-10-08T08:21:38.283Z,13.40
2022-10-08T08:24:08.370Z,13.60
2022-10-08T08:26:38.012Z,13.80
2022-10-08T08:29:08.255Z,13.90
2022-10-08T08:31:37.655Z,14.10
2022-10-08T08:34:08.642Z,14.30
2022-10-08T08:36:39.483Z,14.40
2022-10-08T08:39:08.438Z,14.50
2022-10-08T08:42:09.099Z,14.50
2022-10-08T08:45:01.234Z,14.60
2022-10-08T08:47:36.562Z,14.70
2022-10-08T08:50:30.103Z,14.80
2022-10-08T08:52:57.635Z,14.90
2022-10-08T08:55:49.293Z,14.90
2022-10-08T08:58:38.122Z,15.10
2022-10-08T09:01:17.767Z,15.10
2022-10-08T09:03:52.925Z,15.20
2022-10-08T09:06:23.351Z,15.30
2022-10-08T09:09:01.957Z,15.30
2022-10-08T09:11:39.711Z,15.30
2022-10-08T09:17:35.493Z,15.50
2022-10-08T09:20:02.921Z,15.80
2022-10-08T09:22:36.970Z,16.10
2022-10-08T09:25:08.077Z,16.30
2022-10-08T09:27:54.073Z,16.20
2022-10-08T09:30:56.461Z,16.10
2022-10-08T09:33:32.130Z,16.00
2022-10-08T09:35:59.548Z,15.80
2022-10-08T09:38:41.400Z,15.70
2022-10-08T09:41:17.094Z,15.50
2022-10-08T09:43:45.735Z,15.50
2022-10-08T09:46:30.969Z,15.60
2022-10-08T09:49:20.535Z,15.90
2022-10-08T09:51:50.217Z,15.90
2022-10-08T09:54:27.294Z,15.80
2022-10-08T09:56:57.727Z,15.80
2022-10-08T09:59:28.903Z,15.80
2022-10-08T10:01:59.393Z,15.70
2022-10-08T10:04:37.877Z,15.70
2022-10-08T10:07:05.864Z,15.70
2022-10-08T10:09:44.852Z,15.80
2022-10-08T10:12:16.546Z,16.00
2022-10-08T10:14:56.573Z,16.10
2022-10-08T10:17:39.535Z,16.30
2022-10-08T10:20:11.562Z,16.40
2022-10-08T10:22:56.507Z,16.40
2022-10-08T10:25:47.944Z,16.30
2022-10-08T10:28:38.844Z,16.20
2022-10-08T10:31:14.039Z,16.10
2022-10-08T10:33:59.396Z,16.00
2022-10-08T10:36:31.589Z,15.90
2022-10-08T10:39:30.512Z,16.00
2022-10-08T10:42:18.568Z,16.20
2022-10-08T10:44:53.766Z,16.40
2022-10-08T10:47:25.315Z,16.60
2022-10-08T10:49:55.374Z,16.70
2022-10-08T10:52:53.186Z,16.70
2022-10-08T10:55:33.036Z,16.70
2022-10-08T10:58:17.947Z,16.70
2022-10-08T11:00:53.621Z,16.60
2022-10-08T11:03:52.003Z,16.70
2022-10-08T11:06:49.592Z,16.80
2022-10-08T11:09:32.069Z,16.90
2022-10-08T11:12:31.028Z,17.00
2022-10-08T11:15:07.166Z,17.20
2022-10-08T11:17:37.721Z,17.30
2022-10-08T11:20:37.993Z,17.30
2022-10-08T11:23:35.186Z,17.20
2022-10-08T11:26:22.414Z,17.10
2022-10-08T11:29:23.233Z,17.00
2022-10-08T11:31:52.242Z,17.00
2022-10-08T11:34:35.432Z,17.00
2022-10-08T11:37:31.504Z,17.10
2022-10-08T11:40:23.170Z,17.20
2022-10-08T11:43:03.441Z,17.30
2022-10-08T11:45:39.949Z,17.20
2022-10-08T11:48:35.403Z,17.10
2022-10-08T11:51:20.157Z,17.10
2022-10-08T11:54:16.479Z,17.10
2022-10-08T11:56:52.199Z,17.10
2022-10-08T11:59:22.181Z,17.00
2022-10-08T12:01:57.479Z,17.00
2022-10-08T12:04:42.275Z,17.00
2022-10-08T12:07:15.346Z,17.10
2022-10-08T12:10:02.061Z,17.10
2022-10-08T12:12:50.869Z,17.10
2022-10-08T12:15:23.887Z,17.20
2022-10-08T12:18:26.228Z,17.20
2022-10-08T12:21:20.564Z,17.10
2022-10-08T12:23:47.776Z,17.00
2022-10-08T12:26:16.637Z,16.90
2022-10-08T12:28:43.553Z,16.90
2022-10-08T12:31:30.455Z,16.80
2022-10-08T12:33:58.662Z,16.80
2022-10-08T12:36:43.577Z,16.80
2022-10-08T12:39:30.373Z,16.70
2022-10-08T12:42:09.714Z,16.70
2022-10-08T12:44:54.590Z,16.70
2022-10-08T12:47:30.651Z,16.70
2022-10-08T12:50:32.249Z,16.70
2022-10-08T12:53:01.319Z,16.80
2022-10-08T12:55:29.272Z,16.90
2022-10-08T12:57:56.252Z,17.00
2022-10-08T13:00:31.169Z,17.10
2022-10-08T13:03:18.326Z,17.00
2022-10-08T13:05:46.113Z,17.00
2022-10-08T13:08:30.008Z,17.00
2022-10-08T13:10:58.493Z,16.90
2022-10-08T13:13:38.852Z,16.70
2022-10-08T13:16:07.108Z,16.70
2022-10-08T13:18:36.092Z,16.80
2022-10-08T13:21:07.993Z,16.90
2022-10-08T13:23:36.091Z,17.10
2022-10-08T13:26:06.211Z,17.00
2022-10-08T13:28:59.021Z,17.00
2022-10-08T13:31:23.981Z,17.00
2022-10-08T13:33:51.439Z,17.00
2022-10-08T13:36:23.048Z,17.00
2022-10-08T13:38:50.209Z,16.90
2022-10-08T13:41:25.923Z,16.90
2022-10-08T13:43:52.806Z,16.80
2022-10-08T13:46:19.768Z,16.70
2022-10-08T13:48:46.719Z,16.70
2022-10-08T13:51:13.657Z,16.70
2022-10-08T13:53:42.289Z,16.60
2022-10-08T13:56:09.353Z,16.70
2022-10-08T13:58:36.245Z,16.60
2022-10-08T14:01:03.267Z,16.50
2022-10-08T14:03:30.206Z,16.30
2022-10-08T14:05:58.107Z,16.20
2022-10-08T14:08:29.413Z,16.00
2022-10-08T14:10:58.393Z,15.90
2022-10-08T14:13:25.954Z,15.90
2022-10-08T14:15:53.036Z,15.80
2022-10-08T14:18:20.284Z,15.70
2022-10-08T14:20:50.571Z,15.70
2022-10-08T14:23:17.714Z,15.60
2022-10-08T14:25:44.662Z,15.60
2022-10-08T14:28:11.601Z,15.60
2022-10-08T14:30:38.497Z,15.50
2022-10-08T14:33:10.316Z,15.40
2022-10-08T14:35:38.864Z,15.40
2022-10-08T14:38:06.038Z,15.30
2022-10-08T14:40:33.022Z,15.20
2022-10-08T14:42:59.963Z,15.10
2022-10-08T14:45:27.076Z,15.10
2022-10-08T14:47:54.055Z,15.00
2022-10-08T14:50:21.232Z,14.80
2022-10-08T14:52:48.352Z,14.70
2022-10-08T14:55:15.794Z,14.60
2022-10-08T14:57:42.780Z,14.50
2022-10-08T15:00:10.437Z,14.50
2022-10-08T15:02:37.367Z,14.40
2022-10-08T15:05:04.555Z,14.30
2022-10-08T15:07:31.517Z,14.20
2022-10-08T15:09:58.882Z,14.10
2022-10-08T15:12:25.797Z,14.00
2022-10-08T15:14:52.688Z,13.90
2022-10-08T15:17:19.595Z,13.70
2022-10-08T15:19:46.980Z,13.60
2022-10-08T15:22:13.942Z,13.50
2022-10-08T15:24:41.452Z,13.40
2022-10-08T15:27:08.475Z,13.30
2022-10-08T15:29:36.703Z,13.20
2022-10-08T15:32:03.778Z,13.20
2022-10-08T15:34:30.742Z,13.00
2022-10-08T15:36:57.625Z,12.90
2022-10-08T15:39:24.633Z,12.80
2022-10-08T15:41:53.113Z,12.80
2022-10-08T15:44:25.315Z,12.70
2022-10-08T15:46:59.861Z,12.60
2022-10-08T15:49:31.499Z,12.50
2022-10-08T15:51:58.821Z,12.40
2022-10-08T15:54:25.907Z,12.30
2022-10-08T15:56:53.464Z,12.30
2022-10-08T15:59:20.492Z,12.30
2022-10-08T16:01:47.621Z,12.20
2022-10-08T16:04:14.712Z,12.20
2022-10-08T16:06:45.281Z,12.10
2022-10-08T16:09:13.894Z,12.10
2022-10-08T16:11:41.474Z,12.10
2022-10-08T16:14:19.897Z,12.20
2022-10-08T16:16:47.214Z,12.30
2022-10-08T16:19:23.337Z,12.30
2022-10-08T16:21:51.689Z,12.40
2022-10-08T16:24:19.437Z,12.40
2022-10-08T16:26:47.258Z,12.40
2022-10-08T16:29:16.292Z,12.30
2022-10-08T16:31:44.386Z,12.30
2022-10-08T16:34:22.800Z,12.30
2022-10-08T16:36:59.249Z,12.20
2022-10-08T16:39:26.340Z,12.20
2022-10-08T16:41:53.360Z,12.20
2022-10-08T16:44:21.327Z,12.10
2022-10-08T16:46:53.107Z,12.00
2022-10-08T16:49:24.713Z,11.90
2022-10-08T16:52:04.830Z,11.80
2022-10-08T16:54:32.928Z,11.80
2022-10-08T16:56:59.940Z,11.70
2022-10-08T16:59:28.905Z,11.60
2022-10-08T17:01:57.900Z,11.60
2022-10-08T17:04:27.804Z,11.50
2022-10-08T17:06:55.581Z,11.40
2022-10-08T17:09:22.786Z,11.40
2022-10-08T17:11:50.125Z,11.30
2022-10-08T17:14:17.101Z,11.30
2022-10-08T17:16:45.147Z,11.20
2022-10-08T17:19:12.648Z,11.20
2022-10-08T17:21:40.356Z,11.10
2022-10-08T17:24:07.721Z,11.10
2022-10-08T17:26:34.855Z,11.10
2022-10-08T17:29:07.221Z,11.00
2022-10-08T17:31:34.522Z,11.00
2022-10-08T17:34:02.341Z,11.00
2022-10-08T17:36:31.624Z,11.00
2022-10-08T17:39:00.986Z,10.90
2022-10-08T17:41:33.793Z,10.90
2022-10-08T17:44:02.944Z,10.90
2022-10-08T17:46:52.181Z,10.80
2022-10-08T17:49:20.544Z,10.70
2022-10-08T17:51:48.097Z,10.60
2022-10-08T17:54:18.432Z,10.60
2022-10-08T17:56:46.285Z,10.50
2022-10-08T17:59:45.796Z,10.40
2022-10-08T18:02:12.819Z,10.30
2022-10-08T18:04:39.885Z,10.20
2022-10-08T18:07:06.794Z,10.20
2022-10-08T18:09:33.685Z,10.10
2022-10-08T18:12:00.631Z,10.10
2022-10-08T18:14:27.501Z,10.10
2022-10-08T18:16:54.496Z,10.10
2022-10-08T18:19:21.476Z,10.00
2022-10-08T18:21:48.715Z,10.00
2022-10-08T18:24:17.146Z,9.90
2022-10-08T18:26:44.204Z,9.90
2022-10-08T18:29:13.427Z,9.90
2022-10-08T18:31:42.266Z,9.80
2022-10-08T18:34:15.632Z,9.80
2022-10-08T18:36:42.791Z,9.80
2022-10-08T18:39:14.809Z,9.80
2022-10-08T18:41:50.218Z,9.90
2022-10-08T18:44:23.076Z,9.90
2022-10-08T18:46:50.788Z,9.90
2022-10-08T18:49:20.095Z,9.90
2022-10-08T18:51:49.312Z,9.90
2022-10-08T18:54:16.214Z,9.90
2022-10-08T18:56:43.237Z,9.90
2022-10-08T18:59:15.528Z,10.00
2022-10-08T19:01:44.930Z,10.00
2022-10-08T19:04:18.176Z,10.10
2022-10-08T19:06:46.826Z,10.10
2022-10-08T19:09:14.228Z,10.10
2022-10-08T19:11:45.172Z,10.10
2022-10-08T19:14:15.256Z,10.10
2022-10-08T19:16:42.572Z,10.10
2022-10-08T19:19:23.098Z,10.00
2022-10-08T19:21:50.698Z,10.00
2022-10-08T19:24:20.340Z,10.00
2022-10-08T19:26:48.395Z,10.00
2022-10-08T19:29:18.093Z,10.10
2022-10-08T19:31:50.145Z,10.10
2022-10-08T19:34:20.245Z,10.20
2022-10-08T19:36:47.470Z,10.20
2022-10-08T19:39:17.389Z,10.20
2022-10-08T19:41:44.355Z,10.20
2022-10-08T19:44:11.877Z,10.30
2022-10-08T19:46:38.936Z,10.30
2022-10-08T19:49:07.307Z,10.30
2022-10-08T19:51:34.355Z,10.30
2022-10-08T19:54:01.675Z,10.30
2022-10-08T19:56:41.681Z,10.40
2022-10-08T19:59:10.683Z,10.50
2022-10-08T20:01:39.242Z,10.50
2022-10-08T20:04:07.508Z,10.50
2022-10-08T20:06:38.772Z,10.60
2022-10-08T20:09:07.763Z,10.70
2022-10-08T20:11:34.723Z,10.80
2022-10-08T20:14:01.778Z,10.80
2022-10-08T20:16:37.932Z,10.90
2022-10-08T20:19:16.901Z,10.90
2022-10-08T20:21:44.256Z,10.90
2022-10-08T20:24:11.655Z,10.90
2022-10-08T20:26:40.654Z,11.00
2022-10-08T20:29:16.446Z,11.00
2022-10-08T20:31:54.917Z,11.00
2022-10-08T20:34:28.755Z,11.00
2022-10-08T20:36:55.796Z,11.10
2022-10-08T20:39:23.150Z,11.00
2022-10-08T20:41:51.705Z,11.00
2022-10-08T20:44:18.924Z,10.90
2022-10-08T20:46:48.416Z,10.90
2022-10-08T20:49:15.400Z,10.80
2022-10-08T20:51:43.512Z,10.80
2022-10-08T20:54:13.775Z,10.80
2022-10-08T20:56:41.510Z,10.70
2022-10-08T20:59:11.088Z,10.70
2022-10-08T21:01:39.112Z,10.70
2022-10-08T21:04:07.188Z,10.70
2022-10-08T21:06:40.315Z,10.60
2022-10-08T21:09:07.704Z,10.60
2022-10-08T21:11:35.556Z,10.60
2022-10-08T21:14:03.765Z,10.70
2022-10-08T21:16:33.698Z,10.60
2022-10-08T21:19:04.129Z,10.60
2022-10-08T21:21:33.108Z,10.60
2022-10-08T21:24:00.544Z,10.60
2022-10-08T21:26:32.839Z,10.60
2022-10-08T21:29:01.848Z,10.50
2022-10-08T21:31:30.962Z,10.60
2022-10-08T21:33:58.578Z,10.50
2022-10-08T21:36:28.259Z,10.50
2022-10-08T21:38:55.507Z,10.50
2022-10-08T21:41:23.957Z,10.50
2022-10-08T21:43:53.193Z,10.60
2022-10-08T21:46:23.738Z,10.60
2022-10-08T21:48:59.484Z,10.60
2022-10-08T21:51:28.036Z,10.60
2022-10-08T21:53:57.350Z,10.60
2022-10-08T21:56:27.262Z,10.60
2022-10-08T21:58:56.352Z,10.60
2022-10-08T22:01:30.533Z,10.50
2022-10-08T22:03:59.656Z,10.50
2022-10-08T22:06:28.358Z,10.50
2022-10-08T22:08:55.586Z,10.40
2022-10-08T22:11:23.321Z,10.40
2022-10-08T22:13:50.458Z,10.40
2022-10-08T22:16:19.249Z,10.30
2022-10-08T22:18:46.547Z,10.30
2022-10-08T22:21:16.519Z,10.20
2022-10-08T22:23:43.516Z,10.20
2022-10-08T22:26:29.180Z,10.10
2022-10-08T22:28:57.012Z,10.10
2022-10-08T22:31:23.989Z,10.00
2022-10-08T22:33:51.314Z,9.90
2022-10-08T22:36:21.610Z,9.90
2022-10-08T22:38:49.147Z,9.80
2022-10-08T22:41:23.319Z,9.70
2022-10-08T22:43:50.935Z,9.60
2022-10-08T22:46:20.330Z,9.60
2022-10-08T22:48:48.260Z,9.50
2022-10-08T22:51:18.634Z,9.40
2022-10-08T22:53:46.030Z,9.30
2022-10-08T22:56:19.462Z,9.20
2022-10-08T22:58:47.294Z,9.10
2022-10-08T23:01:16.672Z,9.10
2022-10-08T23:03:44.330Z,9.10
2022-10-08T23:06:20.587Z,9.00
2022-10-08T23:08:59.894Z,9.00
2022-10-08T23:11:46.389Z,9.10
2022-10-08T23:14:17.857Z,8.90
2022-10-08T23:16:44.749Z,8.90
2022-10-08T23:19:12.234Z,8.80
2022-10-08T23:21:40.229Z,8.80
2022-10-08T23:24:08.619Z,8.80
2022-10-08T23:26:36.357Z,8.70
2022-10-08T23:29:04.592Z,8.70
2022-10-08T23:31:36.560Z,8.70
2022-10-08T23:34:05.013Z,8.80
2022-10-08T23:36:34.900Z,8.80
2022-10-08T23:39:01.993Z,8.90
2022-10-08T23:41:29.496Z,8.90
2022-10-08T23:43:57.114Z,8.90
2022-10-08T23:46:26.968Z,8.80
2022-10-08T23:48:54.006Z,8.80
2022-10-08T23:51:23.063Z,8.80
2022-10-08T23:53:51.416Z,8.70
2022-10-08T23:56:19.237Z,8.70
2022-10-08T23:58:46.197Z,8.60
